createdAt,value
2023-03-24T00:01:07.763Z,100.00
2023-03-24T00:03:34.704Z,100.00
2023-03-24T00:06:03.619Z,100.00
2023-03-24T00:08:36.721Z,100.00
2023-03-24T00:11:07.318Z,100.00
2023-03-24T00:13:38.434Z,100.00
2023-03-24T00:16:08.335Z,100.00
2023-03-24T00:18:37.095Z,100.00
2023-03-24T00:21:04.898Z,100.00
2023-03-24T00:23:35.351Z,100.00
2023-03-24T00:26:09.412Z,100.00
2023-03-24T00:28:37.172Z,100.00
2023-03-24T00:31:06.395Z,100.00
2023-03-24T00:33:35.299Z,100.00
2023-03-24T00:36:04.020Z,100.00
2023-03-24T00:38:30.679Z,100.00
2023-03-24T00:40:58.986Z,100.00
2023-03-24T00:43:25.654Z,100.00
2023-03-24T00:46:02.127Z,100.00
2023-03-24T00:48:30.369Z,100.00
2023-03-24T00:50:57.165Z,100.00
2023-03-24T00:53:26.063Z,100.00
2023-03-24T00:55:52.786Z,100.00
2023-03-24T00:58:21.857Z,100.00
2023-03-24T01:00:58.221Z,100.00
2023-03-24T01:03:27.531Z,100.00
2023-03-24T01:05:57.864Z,100.00
2023-03-24T01:08:25.731Z,100.00
2023-03-24T01:10:55.729Z,100.00
2023-03-24T01:13:26.194Z,100.00
2023-03-24T01:15:53.889Z,100.00
2023-03-24T01:18:21.588Z,100.00
2023-03-24T01:20:51.384Z,100.00
2023-03-24T01:23:21.827Z,100.00
2023-03-24T01:25:50.273Z,100.00
2023-03-24T01:28:23.517Z,100.00
2023-03-24T01:30:53.359Z,100.00
2023-03-24T01:33:21.082Z,100.00
2023-03-24T01:35:48.294Z,100.00
2023-03-24T01:38:15.732Z,100.00
2023-03-24T01:40:46.661Z,100.00
2023-03-24T01:43:22.735Z,100.00
2023-03-24T01:46:14.263Z,100.00
2023-03-24T01:48:49.813Z,100.00
2023-03-24T01:51:20.252Z,100.00
2023-03-24T01:53:59.979Z,100.00
2023-03-24T01:56:27.348Z,100.00
2023-03-24T01:58:58.214Z,100.00
2023-03-24T02:01:30.015Z,100.00
2023-03-24T02:03:59.034Z,100.00
2023-03-24T02:06:26.279Z,100.00
2023-03-24T02:08:56.902Z,100.00
2023-03-24T02:11:26.862Z,100.00
2023-03-24T02:13:53.888Z,100.00
2023-03-24T02:16:43.687Z,100.00
2023-03-24T02:19:19.461Z,100.00
2023-03-24T02:22:07.590Z,100.00
2023-03-24T02:25:15.526Z,100.00
2023-03-24T02:28:20.627Z,100.00
2023-03-24T02:30:50.480Z,100.00
2023-03-24T02:34:01.807Z,100.00
2023-03-24T02:37:02.599Z,100.00
2023-03-24T02:39:29.181Z,100.00
2023-03-24T02:42:20.218Z,100.00
2023-03-24T02:45:05.605Z,100.00
2023-03-24T02:47:45.441Z,100.00
2023-03-24T02:50:21.244Z,100.00
2023-03-24T02:53:05.763Z,100.00
2023-03-24T02:55:54.184Z,100.00
2023-03-24T02:58:32.251Z,100.00
2023-03-24T03:01:14.161Z,100.00
2023-03-24T03:03:45.801Z,100.00
2023-03-24T03:06:26.065Z,100.00
2023-03-24T03:08:53.905Z,100.00
2023-03-24T03:11:20.766Z,100.00
2023-03-24T03:14:13.447Z,100.00
2023-03-24T03:16:45.503Z,100.00
2023-03-24T03:19:19.769Z,100.00
2023-03-24T03:21:48.828Z,100.00
2023-03-24T03:24:20.264Z,100.00
2023-03-24T03:26:49.113Z,100.00
2023-03-24T03:29:22.220Z,100.00
2023-03-24T03:31:53.244Z,100.00
2023-03-24T03:34:34.680Z,100.00
2023-03-24T03:37:10.561Z,100.00
2023-03-24T03:39:50.550Z,100.00
2023-03-24T03:42:17.294Z,100.00
2023-03-24T03:44:44.259Z,100.00
2023-03-24T03:47:11.112Z,100.00
2023-03-24T03:49:37.878Z,100.00
2023-03-24T03:52:05.455Z,100.00
2023-03-24T03:54:34.321Z,100.00
2023-03-24T03:57:01.293Z,100.00
2023-03-24T03:59:34.248Z,100.00
2023-03-24T04:02:27.000Z,100.00
2023-03-24T04:05:07.032Z,100.00
2023-03-24T04:07:33.748Z,100.00
2023-03-24T04:10:09.715Z,100.00
2023-03-24T04:12:59.914Z,100.00
2023-03-24T04:15:34.035Z,100.00
2023-03-24T04:18:19.545Z,100.00
2023-03-24T04:20:49.968Z,100.00
2023-03-24T04:24:05.361Z,100.00
2023-03-24T04:26:50.611Z,100.00
2023-03-24T04:29:30.088Z,100.00
2023-03-24T04:32:02.545Z,100.00
2023-03-24T04:34:35.240Z,100.00
2023-03-24T04:37:28.328Z,100.00
2023-03-24T04:39:59.109Z,100.00
2023-03-24T04:42:33.604Z,100.00
2023-03-24T04:45:00.567Z,100.00
2023-03-24T04:47:32.042Z,100.00
2023-03-24T04:50:03.172Z,100.00
2023-03-24T04:52:29.886Z,100.00
2023-03-24T04:54:56.665Z,100.00
2023-03-24T04:57:23.384Z,100.00
2023-03-24T04:59:50.113Z,100.00
2023-03-24T05:02:16.805Z,100.00
2023-03-24T05:04:43.555Z,100.00
2023-03-24T05:07:10.214Z,100.00
2023-03-24T05:09:36.962Z,100.00
2023-03-24T05:12:03.811Z,100.00
2023-03-24T05:14:30.566Z,100.00
2023-03-24T05:16:57.305Z,100.00
2023-03-24T05:19:23.988Z,100.00
2023-03-24T05:21:50.737Z,100.00
2023-03-24T05:24:17.420Z,100.00
2023-03-24T05:26:44.182Z,100.00
2023-03-24T05:29:11.027Z,100.00
2023-03-24T05:31:37.646Z,100.00
2023-03-24T05:34:04.266Z,100.00
2023-03-24T05:36:31.373Z,100.00
2023-03-24T05:38:58.098Z,100.00
2023-03-24T05:41:24.819Z,100.00
2023-03-24T05:43:51.622Z,100.00
2023-03-24T05:46:18.362Z,100.00
2023-03-24T05:48:45.034Z,100.00
2023-03-24T05:51:11.698Z,100.00
2023-03-24T05:53:38.345Z,100.00
2023-03-24T05:56:06.148Z,100.00
2023-03-24T05:58:34.740Z,100.00
2023-03-24T06:01:07.183Z,100.00
2023-03-24T06:03:38.886Z,100.00
2023-03-24T06:06:08.941Z,100.00
2023-03-24T06:08:36.436Z,100.00
2023-03-24T06:11:03.886Z,100.00
2023-03-24T06:13:31.281Z,100.00
2023-03-24T06:16:00.365Z,100.00
2023-03-24T06:18:30.692Z,100.00
2023-03-24T06:20:57.462Z,100.00
2023-03-24T06:23:25.989Z,100.00
2023-03-24T06:25:53.773Z,100.00
2023-03-24T06:28:21.046Z,100.00
2023-03-24T06:30:49.174Z,100.00
2023-03-24T06:33:16.107Z,100.00
2023-03-24T06:35:43.016Z,100.00
2023-03-24T06:38:10.060Z,100.00
2023-03-24T06:40:36.692Z,100.00
2023-03-24T06:43:03.623Z,100.00
2023-03-24T06:45:31.232Z,100.00
2023-03-24T06:47:58.060Z,100.00
2023-03-24T06:50:33.172Z,100.00
2023-03-24T06:53:00.155Z,100.00
2023-03-24T06:55:27.205Z,100.00
2023-03-24T06:57:54.199Z,100.00
2023-03-24T07:00:21.163Z,100.00
2023-03-24T07:02:47.833Z,100.00
2023-03-24T07:05:14.758Z,100.00
2023-03-24T07:10:13.238Z,100.00
2023-03-24T07:12:40.506Z,100.00
2023-03-24T07:15:08.448Z,100.00
2023-03-24T07:17:35.994Z,100.00
2023-03-24T07:20:05.536Z,100.00
2023-03-24T07:22:32.639Z,100.00
2023-03-24T07:25:01.644Z,100.00
2023-03-24T07:27:28.311Z,100.00
2023-03-24T07:29:54.962Z,100.00
2023-03-24T07:32:21.724Z,100.00
2023-03-24T07:34:49.691Z,100.00
2023-03-24T07:37:16.492Z,100.00
2023-03-24T07:39:43.322Z,100.00
2023-03-24T07:42:11.829Z,100.00
2023-03-24T07:44:39.692Z,100.00
2023-03-24T07:47:06.522Z,100.00
2023-03-24T07:49:33.198Z,100.00
2023-03-24T07:51:59.865Z,100.00
2023-03-24T07:54:27.279Z,100.00
2023-03-24T07:56:54.045Z,100.00
2023-03-24T07:59:20.872Z,100.00
2023-03-24T08:01:51.576Z,100.00
2023-03-24T08:04:21.869Z,100.00
2023-03-24T08:06:49.096Z,100.00
2023-03-24T08:09:16.321Z,100.00
2023-03-24T08:11:43.072Z,100.00
2023-03-24T08:14:09.812Z,100.00
2023-03-24T08:16:38.938Z,100.00
2023-03-24T08:19:06.448Z,100.00
2023-03-24T08:21:33.361Z,100.00
2023-03-24T08:24:01.688Z,100.00
2023-03-24T08:26:28.349Z,100.00
2023-03-24T08:28:55.137Z,100.00
2023-03-24T08:31:22.003Z,100.00
2023-03-24T08:33:48.687Z,100.00
2023-03-24T08:36:15.563Z,100.00
2023-03-24T08:38:42.212Z,100.00
2023-03-24T08:41:09.097Z,100.00
2023-03-24T08:43:37.633Z,100.00
2023-03-24T08:46:08.010Z,100.00
2023-03-24T08:48:37.228Z,100.00
2023-03-24T08:51:13.684Z,100.00
2023-03-24T08:53:40.724Z,100.00
2023-03-24T08:56:07.955Z,100.00
2023-03-24T08:58:34.670Z,100.00
2023-03-24T09:01:02.106Z,100.00
2023-03-24T09:03:28.937Z,100.00
2023-03-24T09:05:59.660Z,100.00
2023-03-24T09:08:27.994Z,100.00
2023-03-24T09:10:54.796Z,100.00
2023-03-24T09:13:21.560Z,100.00
2023-03-24T09:15:54.237Z,100.00
2023-03-24T09:18:21.946Z,100.00
2023-03-24T09:20:49.050Z,100.00
2023-03-24T09:23:16.410Z,100.00
2023-03-24T09:25:43.093Z,100.00
2023-03-24T09:28:09.809Z,100.00
2023-03-24T09:30:36.573Z,100.00
2023-03-24T09:33:04.124Z,100.00
2023-03-24T09:35:31.461Z,100.00
2023-03-24T09:37:58.376Z,100.00
2023-03-24T09:40:27.681Z,100.00
2023-03-24T09:43:00.161Z,100.00
2023-03-24T09:45:27.864Z,100.00
2023-03-24T09:48:05.952Z,100.00
2023-03-24T09:50:40.643Z,100.00
2023-03-24T09:53:14.057Z,100.00
2023-03-24T09:55:41.666Z,100.00
2023-03-24T09:58:10.623Z,100.00
2023-03-24T10:00:37.522Z,100.00
2023-03-24T10:03:17.201Z,100.00
2023-03-24T10:06:21.886Z,100.00
2023-03-24T10:09:13.644Z,100.00
2023-03-24T10:12:29.685Z,100.00
2023-03-24T10:18:23.595Z,100.00
2023-03-24T10:21:14.294Z,100.00
2023-03-24T10:23:46.631Z,100.00
2023-03-24T10:26:47.392Z,100.00
2023-03-24T10:29:29.129Z,100.00
2023-03-24T10:32:12.735Z,100.00
2023-03-24T10:34:40.149Z,100.00
2023-03-24T10:37:07.518Z,100.00
2023-03-24T10:39:44.188Z,100.00
2023-03-24T10:42:22.176Z,100.00
2023-03-24T10:44:50.255Z,100.00
2023-03-24T10:47:19.531Z,100.00
2023-03-24T10:49:59.468Z,100.00
2023-03-24T10:52:26.568Z,100.00
2023-03-24T10:54:59.087Z,100.00
2023-03-24T10:57:26.959Z,100.00
2023-03-24T10:59:56.113Z,100.00
2023-03-24T11:02:30.089Z,100.00
2023-03-24T11:05:02.584Z,100.00
2023-03-24T11:07:49.656Z,100.00
2023-03-24T11:10:27.025Z,100.00
2023-03-24T11:12:53.631Z,100.00
2023-03-24T11:15:34.589Z,100.00
2023-03-24T11:18:08.710Z,100.00
2023-03-24T11:20:40.884Z,100.00
2023-03-24T11:23:10.868Z,100.00
2023-03-24T11:25:39.759Z,99.45
2023-03-24T11:28:09.630Z,99.60
2023-03-24T11:30:47.556Z,100.00
2023-03-24T11:33:36.318Z,100.00
2023-03-24T11:36:29.036Z,100.00
2023-03-24T11:39:09.047Z,100.00
2023-03-24T11:41:37.230Z,97.64
2023-03-24T11:44:24.081Z,98.00
2023-03-24T11:46:57.514Z,100.00
2023-03-24T11:49:28.017Z,99.33
2023-03-24T11:51:55.453Z,97.81
2023-03-24T11:54:29.001Z,92.58
2023-03-24T11:56:59.062Z,91.35
2023-03-24T11:59:37.703Z,87.88
2023-03-24T12:02:23.256Z,87.42
2023-03-24T12:04:55.910Z,90.98
2023-03-24T12:07:40.795Z,90.66
2023-03-24T12:10:32.083Z,99.71
2023-03-24T12:13:29.972Z,91.09
2023-03-24T12:16:28.933Z,93.42
2023-03-24T12:19:30.769Z,94.52
2023-03-24T12:22:00.037Z,92.25
2023-03-24T12:25:01.900Z,90.49
2023-03-24T12:27:57.263Z,91.33
2023-03-24T12:30:30.868Z,94.96
2023-03-24T12:33:15.911Z,89.55
2023-03-24T12:36:07.282Z,84.46
2023-03-24T12:39:19.059Z,87.05
2023-03-24T12:41:48.526Z,86.47
2023-03-24T12:44:52.599Z,86.83
2023-03-24T12:47:48.007Z,84.12
2023-03-24T12:50:51.093Z,86.79
2023-03-24T12:53:26.945Z,86.24
2023-03-24T12:56:14.220Z,86.67
2023-03-24T12:58:55.099Z,85.16
2023-03-24T13:01:42.081Z,83.35
2023-03-24T13:04:22.086Z,83.30
2023-03-24T13:06:56.683Z,81.10
2023-03-24T13:09:32.040Z,77.84
2023-03-24T13:12:03.809Z,80.06
2023-03-24T13:14:34.633Z,79.30
2023-03-24T13:17:06.650Z,75.90
2023-03-24T13:19:34.585Z,74.52
2023-03-24T13:22:02.828Z,76.63
2023-03-24T13:24:29.783Z,76.30
2023-03-24T13:26:58.335Z,77.01
2023-03-24T13:29:50.083Z,73.20
2023-03-24T13:32:25.658Z,79.05
2023-03-24T13:35:02.976Z,78.77
2023-03-24T13:37:37.399Z,77.16
2023-03-24T13:40:13.776Z,75.24
2023-03-24T13:42:46.462Z,77.67
2023-03-24T13:45:38.148Z,82.67
2023-03-24T13:48:16.695Z,82.66
2023-03-24T13:50:55.436Z,83.51
2023-03-24T13:53:40.415Z,83.98
2023-03-24T13:56:08.494Z,85.90
2023-03-24T13:58:49.509Z,85.98
2023-03-24T14:01:20.070Z,89.88
2023-03-24T14:04:18.586Z,87.66
2023-03-24T14:06:51.214Z,86.70
2023-03-24T14:09:33.021Z,84.99
2023-03-24T14:12:02.640Z,86.82
2023-03-24T14:14:30.556Z,88.75
2023-03-24T14:17:06.281Z,87.54
2023-03-24T14:19:42.013Z,89.28
2023-03-24T14:22:31.009Z,91.73
2023-03-24T14:25:17.091Z,91.89
2023-03-24T14:27:52.039Z,92.11
2023-03-24T14:30:18.544Z,93.47
2023-03-24T14:32:50.604Z,94.72
2023-03-24T14:35:33.391Z,95.87
2023-03-24T14:38:06.814Z,94.65
2023-03-24T14:40:34.819Z,95.07
2023-03-24T14:43:13.723Z,99.45
2023-03-24T14:45:55.841Z,97.10
2023-03-24T14:49:05.778Z,97.77
2023-03-24T14:51:39.146Z,100.00
2023-03-24T14:54:22.402Z,99.37
2023-03-24T14:56:53.211Z,100.00
2023-03-24T14:59:28.004Z,100.00
2023-03-24T15:02:02.001Z,100.00
2023-03-24T15:04:28.782Z,100.00
2023-03-24T15:06:55.433Z,100.00
2023-03-24T15:09:22.308Z,100.00
2023-03-24T15:11:49.249Z,100.00
2023-03-24T15:14:23.006Z,100.00
2023-03-24T15:16:56.164Z,100.00
2023-03-24T15:19:28.144Z,100.00
2023-03-24T15:22:09.647Z,100.00
2023-03-24T15:24:37.599Z,100.00
2023-03-24T15:27:04.216Z,100.00
2023-03-24T15:29:30.950Z,100.00
2023-03-24T15:31:57.611Z,100.00
2023-03-24T15:34:30.293Z,100.00
2023-03-24T15:37:05.407Z,100.00
2023-03-24T15:39:36.997Z,100.00
2023-03-24T15:42:17.654Z,100.00
2023-03-24T15:44:44.756Z,100.00
2023-03-24T15:47:17.544Z,100.00
2023-03-24T15:50:06.150Z,100.00
2023-03-24T15:52:35.171Z,100.00
2023-03-24T15:55:23.082Z,100.00
2023-03-24T15:57:49.720Z,100.00
2023-03-24T16:00:19.928Z,100.00
2023-03-24T16:02:48.286Z,100.00
2023-03-24T16:05:24.306Z,100.00
2023-03-24T16:08:04.502Z,100.00
2023-03-24T16:10:40.731Z,100.00
2023-03-24T16:13:21.545Z,100.00
2023-03-24T16:15:54.107Z,100.00
2023-03-24T16:18:24.315Z,100.00
2023-03-24T16:20:52.493Z,100.00
2023-03-24T16:23:19.129Z,100.00
2023-03-24T16:25:45.895Z,100.00
2023-03-24T16:28:20.317Z,100.00
2023-03-24T16:30:50.270Z,100.00
2023-03-24T16:33:17.242Z,100.00
2023-03-24T16:35:45.416Z,100.00
2023-03-24T16:38:15.294Z,100.00
2023-03-24T16:40:46.445Z,100.00
2023-03-24T16:43:13.491Z,100.00
2023-03-24T16:45:40.105Z,100.00
2023-03-24T16:48:07.072Z,100.00
2023-03-24T16:50:36.703Z,100.00
2023-03-24T16:53:06.570Z,100.00
2023-03-24T16:55:33.264Z,100.00
2023-03-24T16:57:59.968Z,100.00
2023-03-24T17:00:27.657Z,100.00
2023-03-24T17:02:54.459Z,100.00
2023-03-24T17:05:24.543Z,100.00
2023-03-24T17:07:51.896Z,100.00
2023-03-24T17:10:18.638Z,100.00
2023-03-24T17:12:46.056Z,100.00
2023-03-24T17:15:23.429Z,100.00
2023-03-24T17:17:50.281Z,100.00
2023-03-24T17:20:17.136Z,100.00
2023-03-24T17:22:45.372Z,100.00
2023-03-24T17:25:14.721Z,100.00
2023-03-24T17:27:41.565Z,100.00
2023-03-24T17:30:11.202Z,100.00
2023-03-24T17:32:37.902Z,100.00
2023-03-24T17:35:04.977Z,100.00
2023-03-24T17:37:31.730Z,100.00
2023-03-24T17:39:58.531Z,100.00
2023-03-24T17:42:26.680Z,100.00
2023-03-24T17:44:53.271Z,100.00
2023-03-24T17:47:19.995Z,100.00
2023-03-24T17:49:47.544Z,100.00
2023-03-24T17:52:14.230Z,100.00
2023-03-24T17:54:40.960Z,100.00
2023-03-24T17:57:07.828Z,100.00
2023-03-24T17:59:34.644Z,100.00
2023-03-24T18:02:01.476Z,100.00
2023-03-24T18:04:28.137Z,100.00
2023-03-24T18:06:55.192Z,100.00
2023-03-24T18:09:22.133Z,100.00
2023-03-24T18:11:48.805Z,100.00
2023-03-24T18:14:15.736Z,100.00
2023-03-24T18:16:42.370Z,100.00
2023-03-24T18:19:09.065Z,100.00
2023-03-24T18:21:35.922Z,100.00
2023-03-24T18:24:02.693Z,100.00
2023-03-24T18:26:29.782Z,100.00
2023-03-24T18:28:56.512Z,100.00
2023-03-24T18:31:26.232Z,100.00
2023-03-24T18:33:54.302Z,100.00
2023-03-24T18:36:26.587Z,100.00
2023-03-24T18:39:00.481Z,100.00
2023-03-24T18:41:28.491Z,100.00
2023-03-24T18:43:55.756Z,100.00
2023-03-24T18:46:22.880Z,100.00
2023-03-24T18:48:52.845Z,100.00
2023-03-24T18:51:21.512Z,100.00
2023-03-24T18:53:48.996Z,100.00
2023-03-24T18:56:19.371Z,100.00
2023-03-24T18:58:46.281Z,100.00
2023-03-24T19:01:15.124Z,100.00
2023-03-24T19:03:44.165Z,100.00
2023-03-24T19:06:15.210Z,100.00
2023-03-24T19:08:47.872Z,100.00
2023-03-24T19:11:15.901Z,100.00
2023-03-24T19:13:46.228Z,100.00
2023-03-24T19:16:13.226Z,100.00
2023-03-24T19:18:40.039Z,100.00
2023-03-24T19:21:07.493Z,100.00
2023-03-24T19:23:34.495Z,100.00
2023-03-24T19:26:01.737Z,100.00
2023-03-24T19:28:30.454Z,100.00
2023-03-24T19:30:58.121Z,100.00
2023-03-24T19:33:25.636Z,100.00
2023-03-24T19:35:53.186Z,100.00
2023-03-24T19:38:24.056Z,100.00
2023-03-24T19:41:10.990Z,100.00
2023-03-24T19:43:38.016Z,100.00
2023-03-24T19:46:05.727Z,100.00
2023-03-24T19:48:32.839Z,100.00
2023-03-24T19:50:59.493Z,100.00
2023-03-24T19:53:26.873Z,100.00
2023-03-24T19:55:57.301Z,100.00
2023-03-24T19:58:24.128Z,100.00
2023-03-24T20:00:51.962Z,100.00
2023-03-24T20:03:18.789Z,100.00
2023-03-24T20:05:45.633Z,100.00
2023-03-24T20:08:12.363Z,100.00
2023-03-24T20:10:42.277Z,100.00
2023-03-24T20:13:09.233Z,100.00
2023-03-24T20:15:36.110Z,100.00
2023-03-24T20:18:02.898Z,100.00
2023-03-24T20:20:29.706Z,100.00
2023-03-24T20:22:56.489Z,100.00
2023-03-24T20:25:23.682Z,100.00
2023-03-24T20:27:50.366Z,100.00
2023-03-24T20:30:18.731Z,100.00
2023-03-24T20:32:45.520Z,100.00
2023-03-24T20:35:12.348Z,100.00
2023-03-24T20:37:39.197Z,100.00
2023-03-24T20:40:07.149Z,100.00
2023-03-24T20:42:33.823Z,100.00
2023-03-24T20:45:01.014Z,100.00
2023-03-24T20:47:27.795Z,100.00
2023-03-24T20:49:54.612Z,100.00
2023-03-24T20:52:23.110Z,100.00
2023-03-24T20:54:50.721Z,100.00
2023-03-24T20:57:18.149Z,100.00
2023-03-24T20:59:47.367Z,100.00
2023-03-24T21:02:15.580Z,100.00
2023-03-24T21:04:42.556Z,100.00
2023-03-24T21:07:09.306Z,100.00
2023-03-24T21:09:36.281Z,100.00
2023-03-24T21:12:03.426Z,100.00
2023-03-24T21:14:30.773Z,100.00
2023-03-24T21:16:57.525Z,100.00
2023-03-24T21:19:24.464Z,100.00
2023-03-24T21:21:51.207Z,100.00
2023-03-24T21:24:18.238Z,100.00
2023-03-24T21:26:46.443Z,100.00
2023-03-24T21:29:13.342Z,100.00
2023-03-24T21:31:41.837Z,100.00
2023-03-24T21:34:08.689Z,100.00
2023-03-24T21:36:38.299Z,100.00
2023-03-24T21:39:07.131Z,100.00
2023-03-24T21:41:33.996Z,100.00
2023-03-24T21:44:04.100Z,100.00
2023-03-24T21:46:33.760Z,100.00
2023-03-24T21:49:01.027Z,100.00
2023-03-24T21:51:36.924Z,100.00
2023-03-24T21:54:06.740Z,100.00
2023-03-24T21:56:34.831Z,100.00
2023-03-24T21:59:01.685Z,100.00
2023-03-24T22:01:28.519Z,100.00
2023-03-24T22:03:56.045Z,100.00
2023-03-24T22:06:22.887Z,100.00
2023-03-24T22:08:49.636Z,100.00
2023-03-24T22:11:18.694Z,100.00
2023-03-24T22:13:46.423Z,100.00
2023-03-24T22:16:13.410Z,100.00
2023-03-24T22:18:40.154Z,100.00
2023-03-24T22:21:08.661Z,100.00
2023-03-24T22:23:39.303Z,100.00
2023-03-24T22:26:11.211Z,100.00
2023-03-24T22:28:38.430Z,100.00
2023-03-24T22:31:13.214Z,100.00
2023-03-24T22:33:40.607Z,100.00
2023-03-24T22:36:08.330Z,100.00
2023-03-24T22:38:35.491Z,100.00
2023-03-24T22:41:05.507Z,100.00
2023-03-24T22:43:32.804Z,100.00
2023-03-24T22:45:59.553Z,100.00
2023-03-24T22:48:26.182Z,100.00
2023-03-24T22:50:53.102Z,100.00
2023-03-24T22:53:20.455Z,100.00
2023-03-24T22:55:47.217Z,100.00
2023-03-24T22:58:14.290Z,100.00
2023-03-24T23:00:42.312Z,100.00
2023-03-24T23:03:09.780Z,100.00
2023-03-24T23:05:44.335Z,100.00
2023-03-24T23:08:14.257Z,100.00
2023-03-24T23:10:43.222Z,100.00
2023-03-24T23:13:11.216Z,100.00
2023-03-24T23:15:39.168Z,100.00
2023-03-24T23:18:06.044Z,100.00
2023-03-24T23:20:33.126Z,100.00
2023-03-24T23:23:01.413Z,100.00
2023-03-24T23:25:31.194Z,100.00
2023-03-24T23:27:58.060Z,100.00
2023-03-24T23:30:24.819Z,100.00
2023-03-24T23:32:51.741Z,100.00
2023-03-24T23:35:18.705Z,100.00
2023-03-24T23:37:45.443Z,100.00
2023-03-24T23:40:14.997Z,100.00
2023-03-24T23:42:46.769Z,100.00
2023-03-24T23:45:15.257Z,100.00
2023-03-24T23:47:43.883Z,100.00
2023-03-24T23:50:11.519Z,100.00
2023-03-24T23:52:41.445Z,100.00
2023-03-24T23:55:10.361Z,100.00
2023-03-24T23:57:38.961Z,100.00
